Terminal Aerodrome Forecast
Issued by NWS

Home | Current Version | Previous Version | Text Only | Print | Product List | Glossary On
Versions: 1 2 3 4 5 6 7 8 9 10 11 12 13 14 15 16 17
000
FTUS43 KGRB 200500
TAFMTW
TAF
KMTW 200520Z 2006/2106 30003KT P6SM BKN025
     FM200900 VRB03KT 6SM BR OVC020
     FM201500 18004KT P6SM OVC018
     FM210100 VRB03KT 4SM BR OVC015=

USA.gov is the U.S. government's official web portal to all federal, state and local government web resources and services.